Time;durP1;ratioP1;P1;durP2;ratioP2;P2;SDS_P1;SDS_P2;PMS_P1;PMS_P2;Temp;Humidity;BMP_temperature;BMP_pressure;BME280_temperature;BME280_humidity;BME280_pressure;Samples;Min_cycle;Max_cycle;Signal;HPM_P1;HPM_P2
2022/07/07 04:01:47;;;;;;;19.50;16.60;;;15.50;99.90;;;;;;5359811;23;21027;-70
2022/07/07 04:04:14;;;;;;;26.03;18.27;;;15.50;99.90;;;;;;4961100;28;20460;-70
2022/07/07 04:06:41;;;;;;;18.13;16.10;;;15.50;99.90;;;;;;4964013;28;20490;-70
2022/07/07 04:09:08;;;;;;;19.13;17.17;;;15.50;99.90;;;;;;4972295;28;20464;-70
2022/07/07 04:11:35;;;;;;;22.70;18.10;;;15.50;99.90;;;;;;4968744;28;20490;-70
2022/07/07 04:14:03;;;;;;;19.90;16.47;;;15.50;99.90;;;;;;4972343;28;20495;-70
2022/07/07 04:16:30;;;;;;;20.27;17.07;;;15.50;99.90;;;;;;4959736;28;20569;-69
2022/07/07 04:18:58;;;;;;;23.80;17.57;;;15.50;99.90;;;;;;4952789;28;20464;-68
2022/07/07 04:21:25;;;;;;;19.17;16.40;;;15.50;99.90;;;;;;4951393;28;20496;-68
2022/07/07 04:23:52;;;;;;;24.57;17.17;;;15.50;99.90;;;;;;4951856;28;20949;-68
2022/07/07 04:26:18;;;;;;;20.73;18.07;;;15.50;99.90;;;;;;4953039;29;20492;-68
2022/07/07 04:28:45;;;;;;;23.00;19.93;;;15.60;99.90;;;;;;4952931;29;20468;-68
2022/07/07 04:31:12;;;;;;;28.90;21.40;;;15.60;99.90;;;;;;4952813;28;20487;-67
2022/07/07 04:33:38;;;;;;;25.00;20.80;;;15.60;99.90;;;;;;4952742;29;20640;-68
2022/07/07 04:36:09;;;;;;;24.27;21.00;;;15.60;99.90;;;;;;4953988;28;20476;-67
2022/07/07 04:38:36;;;;;;;24.70;18.50;;;15.60;99.90;;;;;;4953161;28;20591;-66
2022/07/07 04:41:02;;;;;;;28.13;21.10;;;15.60;99.90;;;;;;4952643;29;20848;-68
2022/07/07 04:43:29;;;;;;;26.80;19.80;;;15.60;99.90;;;;;;4952690;28;20473;-67
2022/07/07 04:45:56;;;;;;;23.97;19.30;;;15.60;99.90;;;;;;4952933;28;20467;-67
2022/07/07 04:48:23;;;;;;;25.17;21.03;;;15.60;99.90;;;;;;4950824;28;20475;-67
2022/07/07 04:50:49;;;;;;;26.97;21.50;;;15.60;99.90;;;;;;4950722;28;20493;-67
2022/07/07 04:53:17;;;;;;;24.43;20.80;;;15.60;99.90;;;;;;4952551;29;20958;-67
2022/07/07 04:55:44;;;;;;;25.93;20.20;;;15.70;99.90;;;;;;4952826;28;20469;-67
2022/07/07 04:58:11;;;;;;;26.90;20.00;;;15.60;99.90;;;;;;4952456;29;20468;-67
2022/07/07 05:00:37;;;;;;;23.80;20.90;;;15.70;99.90;;;;;;4962514;28;21009;-67
2022/07/07 05:03:04;;;;;;;28.87;20.67;;;15.70;99.90;;;;;;4956032;28;20960;-67
2022/07/07 05:05:31;;;;;;;27.97;19.37;;;15.60;99.90;;;;;;4946809;28;20474;-68
2022/07/07 05:07:58;;;;;;;23.40;19.47;;;15.60;99.90;;;;;;4952060;28;21048;-67
2022/07/07 05:10:27;;;;;;;20.20;17.80;;;15.60;99.90;;;;;;4952427;29;20549;-68
2022/07/07 05:12:54;;;;;;;24.63;19.10;;;15.70;99.90;;;;;;4958376;28;20461;-68
2022/07/07 05:15:21;;;;;;;20.50;18.10;;;15.60;99.90;;;;;;4951432;28;20468;-67
2022/07/07 05:17:47;;;;;;;20.00;17.90;;;15.70;99.90;;;;;;4951885;28;20827;-67
2022/07/07 05:20:14;;;;;;;20.20;18.03;;;15.60;99.90;;;;;;4952042;29;20471;-68
2022/07/07 05:22:41;;;;;;;18.50;16.50;;;15.70;99.90;;;;;;4952595;28;20571;-68
2022/07/07 05:25:08;;;;;;;23.20;17.10;;;15.60;99.90;;;;;;4952144;29;20965;-68
2022/07/07 05:27:36;;;;;;;18.60;15.97;;;15.70;99.90;;;;;;4956735;28;20511;-68
2022/07/07 05:30:03;;;;;;;16.27;14.40;;;15.60;99.90;;;;;;4950143;28;20480;-67
2022/07/07 05:32:30;;;;;;;16.97;15.23;;;15.70;99.90;;;;;;4954314;28;20491;-67
2022/07/07 05:34:56;;;;;;;16.10;13.73;;;15.60;99.90;;;;;;4952143;28;20468;-67
2022/07/07 05:37:23;;;;;;;15.00;13.47;;;15.70;99.90;;;;;;4952612;29;20467;-67
2022/07/07 05:39:50;;;;;;;14.90;13.50;;;15.60;99.90;;;;;;4950924;28;20470;-67
2022/07/07 05:42:16;;;;;;;14.70;13.30;;;15.70;99.90;;;;;;4955755;28;20807;-68
2022/07/07 05:44:44;;;;;;;14.93;13.53;;;15.70;99.90;;;;;;4945889;28;20469;-67
2022/07/07 05:47:11;;;;;;;14.53;13.13;;;15.70;99.90;;;;;;4947926;29;20480;-67
2022/07/07 05:49:38;;;;;;;14.43;12.93;;;15.70;99.90;;;;;;4951233;29;20828;-67
2022/07/07 05:52:05;;;;;;;12.80;11.50;;;15.60;99.90;;;;;;4970636;28;20486;-69
2022/07/07 05:54:32;;;;;;;12.00;10.90;;;15.70;99.90;;;;;;4956597;28;20476;-68
2022/07/07 05:56:58;;;;;;;12.57;11.47;;;15.70;99.90;;;;;;4961549;28;20465;-68
2022/07/07 05:59:25;;;;;;;12.00;10.77;;;15.70;99.90;;;;;;4950760;29;20472;-68
2022/07/07 06:01:53;;;;;;;12.20;11.20;;;15.70;99.90;;;;;;4949742;28;20576;-68
2022/07/07 06:04:20;;;;;;;10.93;10.03;;;15.80;99.90;;;;;;4953153;28;20488;-68
2022/07/07 06:06:46;;;;;;;11.17;10.27;;;15.70;99.90;;;;;;4952182;29;20484;-67
2022/07/07 06:09:13;;;;;;;10.40;8.73;;;15.70;99.90;;;;;;4953522;28;20844;-67
2022/07/07 06:11:40;;;;;;;10.13;9.40;;;15.80;99.90;;;;;;4949504;28;20488;-67
2022/07/07 06:14:06;;;;;;;10.57;9.67;;;15.90;99.90;;;;;;4953787;28;20468;-67
2022/07/07 06:16:40;;;;;;;9.10;8.43;;;15.90;99.90;;;;;;4955021;29;20844;-68
2022/07/07 06:19:10;;;;;;;8.90;8.30;;;16.00;99.90;;;;;;4965372;28;20459;-67
2022/07/07 06:21:37;;;;;;;8.83;8.13;;;16.00;99.90;;;;;;4973937;28;20491;-68
2022/07/07 06:24:05;;;;;;;9.40;8.70;;;16.00;99.90;;;;;;4953880;28;20496;-68
2022/07/07 06:26:32;;;;;;;7.90;7.30;;;16.00;99.90;;;;;;4955213;29;20492;-68
2022/07/07 06:28:58;;;;;;;7.03;6.60;;;16.10;99.90;;;;;;4953557;28;20913;-67
2022/07/07 06:31:25;;;;;;;5.83;5.57;;;16.20;99.90;;;;;;4957582;28;20483;-68
2022/07/07 06:33:52;;;;;;;5.90;5.50;;;16.20;99.90;;;;;;4957542;29;20568;-68
2022/07/07 06:36:20;;;;;;;4.90;4.70;;;16.30;99.90;;;;;;4968658;28;20483;-68
2022/07/07 06:38:47;;;;;;;4.33;4.10;;;16.40;99.90;;;;;;4961050;29;20465;-68
2022/07/07 06:41:13;;;;;;;4.33;4.23;;;16.60;99.90;;;;;;4967036;28;20484;-67
2022/07/07 06:43:40;;;;;;;3.77;3.70;;;16.70;99.90;;;;;;4971841;28;20963;-68
2022/07/07 06:46:07;;;;;;;3.13;3.13;;;16.80;99.90;;;;;;4950973;28;20491;-68
2022/07/07 06:48:34;;;;;;;3.10;2.90;;;16.90;99.90;;;;;;4955050;28;20489;-68
2022/07/07 06:51:00;;;;;;;3.17;3.17;;;16.80;99.90;;;;;;4954574;28;20493;-67
2022/07/07 06:53:29;;;;;;;3.90;3.90;;;16.80;99.90;;;;;;4954160;28;20464;-67
2022/07/07 06:55:55;;;;;;;2.70;2.70;;;16.80;99.90;;;;;;4954349;28;20456;-68
2022/07/07 06:58:22;;;;;;;3.67;3.47;;;16.80;99.90;;;;;;4952639;28;20465;-68
2022/07/07 07:00:49;;;;;;;3.10;3.10;;;16.80;99.90;;;;;;4953985;28;20492;-68
2022/07/07 07:03:15;;;;;;;2.80;2.80;;;16.80;99.90;;;;;;4953269;28;20468;-67
2022/07/07 07:05:42;;;;;;;2.77;2.53;;;16.90;99.90;;;;;;4954926;28;20470;-67
2022/07/07 07:08:09;;;;;;;3.00;3.00;;;16.90;99.90;;;;;;4954654;29;20484;-67
2022/07/07 07:10:37;;;;;;;3.13;2.93;;;17.00;99.90;;;;;;4969063;28;21038;-67
2022/07/07 07:13:04;;;;;;;3.07;2.97;;;17.00;99.90;;;;;;4953765;28;20468;-67
2022/07/07 07:15:30;;;;;;;2.60;2.60;;;17.10;99.90;;;;;;4954420;29;20658;-68
2022/07/07 07:17:57;;;;;;;2.63;2.63;;;17.10;99.90;;;;;;4965100;28;20468;-67
2022/07/07 07:20:24;;;;;;;2.80;2.80;;;17.10;99.90;;;;;;4953234;28;20493;-68
2022/07/07 07:22:50;;;;;;;2.80;2.70;;;17.10;99.90;;;;;;4963965;28;20467;-68
2022/07/07 07:25:18;;;;;;;2.50;2.50;;;17.10;99.90;;;;;;4961361;28;20496;-68
2022/07/07 07:27:47;;;;;;;2.70;2.70;;;17.10;99.90;;;;;;4946933;28;20487;-67
2022/07/07 07:30:15;;;;;;;2.73;2.73;;;17.10;99.90;;;;;;4953811;29;20469;-68
2022/07/07 07:32:42;;;;;;;3.00;2.90;;;17.20;99.90;;;;;;4954649;28;20880;-67
2022/07/07 07:35:09;;;;;;;2.43;2.43;;;17.20;99.90;;;;;;4953661;29;20469;-68
2022/07/07 07:37:38;;;;;;;2.17;2.17;;;17.20;99.90;;;;;;4960395;28;20834;-67
2022/07/07 07:40:07;;;;;;;2.50;2.40;;;17.30;99.90;;;;;;4960119;28;20464;-67
2022/07/07 07:42:33;;;;;;;2.23;2.23;;;17.20;99.90;;;;;;4955465;28;20569;-67
2022/07/07 07:45:10;;;;;;;2.10;2.10;;;17.30;99.90;;;;;;4956281;28;20798;-68
2022/07/07 07:47:37;;;;;;;1.40;1.40;;;17.30;99.90;;;;;;4968650;28;20500;-67
2022/07/07 07:50:04;;;;;;;1.63;1.63;;;17.40;99.90;;;;;;4953710;28;20473;-68
2022/07/07 07:52:31;;;;;;;1.30;1.30;;;17.70;99.90;;;;;;4952984;28;20567;-68
2022/07/07 07:54:58;;;;;;;1.00;1.00;;;18.10;99.90;;;;;;4953275;28;20471;-68
2022/07/07 07:57:25;;;;;;;1.13;0.93;;;18.30;99.90;;;;;;4953845;29;20474;-67
2022/07/07 07:59:51;;;;;;;0.90;0.90;;;18.60;99.90;;;;;;4952885;28;20471;-68
2022/07/07 08:02:19;;;;;;;0.90;0.90;;;18.60;99.90;;;;;;4953528;29;21028;-68
2022/07/07 08:04:46;;;;;;;2.67;0.93;;;18.60;99.90;;;;;;4958889;28;20464;-68
2022/07/07 08:07:13;;;;;;;1.17;1.17;;;18.60;99.90;;;;;;4957649;28;20489;-67
2022/07/07 08:09:39;;;;;;;1.23;1.23;;;18.60;99.90;;;;;;4947514;28;20469;-68
2022/07/07 08:12:07;;;;;;;1.57;1.50;;;18.60;99.90;;;;;;4953106;29;21024;-68
2022/07/07 08:14:34;;;;;;;1.40;1.40;;;18.80;99.90;;;;;;4952803;28;20512;-68
2022/07/07 08:17:01;;;;;;;2.00;1.90;;;18.70;99.90;;;;;;4949845;28;20465;-68
2022/07/07 08:19:29;;;;;;;1.90;1.90;;;18.80;99.90;;;;;;4956873;28;20468;-67
2022/07/07 08:21:56;;;;;;;1.70;1.70;;;19.30;99.90;;;;;;4952519;28;20488;-68
2022/07/07 08:24:22;;;;;;;1.53;1.53;;;20.00;99.90;;;;;;4953109;29;20469;-68
2022/07/07 08:26:49;;;;;;;1.70;1.70;;;20.80;99.90;;;;;;4953005;29;20472;-67
2022/07/07 08:29:16;;;;;;;1.37;1.37;;;21.40;99.90;;;;;;4952719;29;20475;-67
2022/07/07 08:31:43;;;;;;;1.50;1.50;;;21.90;99.90;;;;;;4953639;28;20562;-66
2022/07/07 08:34:10;;;;;;;1.10;1.10;;;22.30;99.90;;;;;;4950180;28;20470;-66
2022/07/07 08:36:38;;;;;;;1.60;1.50;;;22.00;99.90;;;;;;4953476;28;20906;-66
2022/07/07 08:39:05;;;;;;;1.67;1.60;;;21.70;99.90;;;;;;4952209;28;20461;-66
2022/07/07 08:41:32;;;;;;;1.67;1.67;;;21.60;99.90;;;;;;4946940;28;20495;-66
2022/07/07 08:43:59;;;;;;;2.33;2.00;;;21.50;99.90;;;;;;4952152;29;20468;-66
2022/07/07 08:46:26;;;;;;;1.73;1.63;;;21.30;99.90;;;;;;4955339;28;20976;-66
2022/07/07 08:48:54;;;;;;;1.50;1.40;;;21.20;99.90;;;;;;4951532;28;20485;-67
2022/07/07 08:51:21;;;;;;;1.57;1.57;;;21.00;99.90;;;;;;4953632;28;20985;-66
2022/07/07 08:53:50;;;;;;;1.73;1.73;;;20.80;99.90;;;;;;4963244;28;21212;-67
2022/07/07 08:56:17;;;;;;;2.63;2.20;;;20.60;99.90;;;;;;4948538;28;20469;-66
2022/07/07 08:58:45;;;;;;;2.37;2.17;;;20.70;99.90;;;;;;4944113;29;20543;-65
2022/07/07 09:01:11;;;;;;;2.23;2.03;;;20.70;99.90;;;;;;4951551;28;20496;-66
2022/07/07 09:03:39;;;;;;;4.23;2.60;;;20.80;99.90;;;;;;4952331;29;20549;-66
2022/07/07 09:06:06;;;;;;;1.57;1.47;;;20.70;99.90;;;;;;4966705;28;20467;-67
2022/07/07 09:08:33;;;;;;;1.60;1.47;;;20.10;99.90;;;;;;4956388;28;20488;-67
2022/07/07 09:11:06;;;;;;;1.20;1.20;;;19.20;99.90;;;;;;4965150;28;20900;-67
2022/07/07 09:13:33;;;;;;;1.77;1.67;;;18.70;99.90;;;;;;4956455;28;20481;-66
2022/07/07 09:16:04;;;;;;;1.80;1.80;;;18.40;99.90;;;;;;4955022;28;20476;-67
2022/07/07 09:18:33;;;;;;;1.67;1.67;;;18.10;99.90;;;;;;4951525;28;20517;-67
2022/07/07 09:21:00;;;;;;;2.30;2.20;;;17.90;99.90;;;;;;4960489;28;20595;-67
2022/07/07 09:23:27;;;;;;;2.00;1.90;;;17.90;99.90;;;;;;4971670;28;20819;-67
2022/07/07 09:25:54;;;;;;;1.80;1.80;;;18.10;99.90;;;;;;4952385;28;20464;-67
2022/07/07 09:28:24;;;;;;;2.40;2.30;;;18.10;99.90;;;;;;4948465;28;20500;-67
2022/07/07 09:30:51;;;;;;;2.50;2.30;;;18.30;99.90;;;;;;4951943;28;20492;-67
2022/07/07 09:33:21;;;;;;;2.63;2.53;;;18.20;99.90;;;;;;4951322;29;20467;-68
2022/07/07 09:38:35;;;;;;;2.63;2.40;;;18.20;99.90;;;;;;4951973;29;20456;-67
2022/07/07 09:41:03;;;;;;;3.80;3.20;;;18.30;99.90;;;;;;4957667;28;20485;-67
2022/07/07 09:43:34;;;;;;;3.47;3.33;;;18.70;99.90;;;;;;4955432;28;20844;-67
2022/07/07 09:46:16;;;;;;;3.37;3.07;;;18.80;99.90;;;;;;4952039;29;20475;-67
2022/07/07 09:48:46;;;;;;;3.00;2.90;;;18.90;99.90;;;;;;4959194;28;20484;-68
2022/07/07 09:51:22;;;;;;;3.23;3.13;;;19.00;99.90;;;;;;4961734;28;20568;-67
2022/07/07 09:53:58;;;;;;;3.47;3.30;;;19.20;99.90;;;;;;4964314;28;20470;-68
2022/07/07 09:56:26;;;;;;;3.43;2.80;;;19.20;99.90;;;;;;4961960;28;20473;-69
2022/07/07 09:58:55;;;;;;;3.30;3.10;;;19.30;99.90;;;;;;4955523;28;20937;-67
2022/07/07 10:01:24;;;;;;;3.03;2.90;;;19.40;99.90;;;;;;4955028;29;20492;-67
2022/07/07 10:03:53;;;;;;;3.07;2.80;;;19.70;99.90;;;;;;4955415;28;20464;-67
2022/07/07 10:06:20;;;;;;;2.80;2.70;;;20.00;99.90;;;;;;4955411;29;20832;-67
2022/07/07 10:08:50;;;;;;;2.80;2.70;;;20.00;99.90;;;;;;4954403;28;20495;-67
2022/07/07 10:11:19;;;;;;;3.30;3.10;;;19.90;99.90;;;;;;4953638;28;20481;-66
2022/07/07 10:13:49;;;;;;;2.60;2.50;;;19.70;99.90;;;;;;4958628;28;20594;-67
2022/07/07 10:16:20;;;;;;;3.00;2.90;;;19.50;99.90;;;;;;4947193;29;20543;-68
2022/07/07 10:18:47;;;;;;;2.60;2.50;;;19.30;99.90;;;;;;4955549;28;20460;-68
2022/07/07 10:21:14;;;;;;;2.27;2.10;;;19.30;99.90;;;;;;4956482;28;20485;-69
2022/07/07 10:23:42;;;;;;;2.77;2.20;;;19.30;99.90;;;;;;4958366;28;20526;-68
2022/07/07 10:26:08;;;;;;;2.60;2.40;;;19.40;99.90;;;;;;4961899;28;20471;-68
2022/07/07 10:28:56;;;;;;;2.43;2.30;;;19.40;99.90;;;;;;4943647;28;20497;-68
2022/07/07 10:31:26;;;;;;;2.70;2.53;;;19.40;99.90;;;;;;4936170;29;20829;-67
2022/07/07 10:33:55;;;;;;;2.53;2.33;;;19.40;99.90;;;;;;4951508;29;20497;-68
2022/07/07 10:36:21;;;;;;;2.20;2.10;;;19.30;99.90;;;;;;4954310;28;20469;-68
2022/07/07 10:38:53;;;;;;;1.70;1.60;;;19.30;99.90;;;;;;4935750;29;20497;-66
2022/07/07 10:41:24;;;;;;;1.87;1.80;;;19.40;99.90;;;;;;4946315;28;20543;-67
2022/07/07 10:43:59;;;;;;;2.03;1.90;;;19.50;99.90;;;;;;4954142;29;20480;-67
2022/07/07 10:46:27;;;;;;;3.23;1.90;;;19.70;99.90;;;;;;4955205;28;20471;-67
2022/07/07 10:49:05;;;;;;;1.83;1.83;;;19.90;99.90;;;;;;4954086;29;20507;-67
2022/07/07 10:51:32;;;;;;;1.70;1.50;;;19.90;99.90;;;;;;4961601;28;20483;-67
2022/07/07 10:54:02;;;;;;;1.70;1.60;;;20.00;99.90;;;;;;4974033;28;20543;-67
2022/07/07 10:56:49;;;;;;;1.60;1.50;;;20.10;99.90;;;;;;4971201;28;20531;-67
2022/07/07 10:59:15;;;;;;;1.90;1.80;;;20.30;99.90;;;;;;4965547;28;20464;-66
2022/07/07 11:02:09;;;;;;;1.90;1.80;;;20.20;99.90;;;;;;4961245;28;20500;-67
2022/07/07 11:04:46;;;;;;;1.83;1.73;;;20.10;99.90;;;;;;4963554;28;20465;-66
2022/07/07 11:07:14;;;;;;;3.93;1.97;;;19.80;99.90;;;;;;4964125;28;20491;-66
2022/07/07 11:09:57;;;;;;;2.00;1.90;;;19.60;99.90;;;;;;4958691;28;20492;-67
2022/07/07 11:12:39;;;;;;;2.77;1.53;;;19.50;99.90;;;;;;4971753;28;20584;-66
2022/07/07 11:15:34;;;;;;;1.70;1.60;;;19.50;99.90;;;;;;4961671;28;20463;-67
2022/07/07 11:18:11;;;;;;;1.60;1.50;;;19.70;99.90;;;;;;4966865;28;21087;-67
2022/07/07 11:20:55;;;;;;;1.30;1.20;;;19.90;99.90;;;;;;4954457;28;20860;-67
2022/07/07 11:23:22;;;;;;;2.47;2.30;;;19.80;99.90;;;;;;4934926;29;20462;-67
2022/07/07 11:25:51;;;;;;;2.93;1.60;;;19.80;99.90;;;;;;4960543;28;20459;-68
2022/07/07 11:28:18;;;;;;;1.90;1.57;;;19.90;99.90;;;;;;4953648;28;20987;-68
2022/07/07 11:30:45;;;;;;;2.00;1.83;;;20.00;99.90;;;;;;4956619;28;20492;-68
2022/07/07 11:33:13;;;;;;;2.30;2.07;;;20.20;99.90;;;;;;4953745;29;20468;-68
2022/07/07 11:35:40;;;;;;;2.20;1.77;;;20.40;99.90;;;;;;4964620;28;20512;-68
2022/07/07 11:38:09;;;;;;;2.93;2.20;;;20.50;99.90;;;;;;4956904;28;20461;-67
2022/07/07 11:40:38;;;;;;;2.43;2.23;;;20.60;99.90;;;;;;4952294;28;20492;-68
2022/07/07 11:43:06;;;;;;;5.10;2.03;;;20.50;99.90;;;;;;4960479;28;20660;-68
2022/07/07 11:45:34;;;;;;;3.70;2.00;;;20.70;99.90;;;;;;4965792;28;20811;-68
2022/07/07 11:48:02;;;;;;;7.60;2.90;;;20.90;99.90;;;;;;4953505;28;20903;-67
2022/07/07 11:50:32;;;;;;;1.80;1.70;;;21.20;99.90;;;;;;4956675;28;20847;-68
2022/07/07 11:53:01;;;;;;;1.60;1.60;;;21.20;99.90;;;;;;4953097;29;20475;-67
2022/07/07 11:55:30;;;;;;;2.00;1.90;;;21.10;99.90;;;;;;4957973;28;20464;-67
2022/07/07 11:57:58;;;;;;;1.67;1.50;;;21.00;99.90;;;;;;4957491;28;20472;-67
2022/07/07 12:00:26;;;;;;;2.83;1.80;;;20.90;99.90;;;;;;4953187;28;20533;-67
2022/07/07 12:02:55;;;;;;;1.70;1.70;;;21.20;99.90;;;;;;4952973;29;20461;-68
2022/07/07 12:05:24;;;;;;;2.27;1.80;;;21.40;99.90;;;;;;4952888;28;20465;-68
2022/07/07 12:07:56;;;;;;;1.70;1.70;;;21.70;99.90;;;;;;4950548;29;20469;-67
2022/07/07 12:10:25;;;;;;;1.67;1.57;;;21.70;99.90;;;;;;4952734;28;20472;-68
2022/07/07 12:13:00;;;;;;;1.57;1.47;;;21.60;99.90;;;;;;4952346;28;20475;-67
2022/07/07 12:15:28;;;;;;;2.57;1.60;;;21.60;99.90;;;;;;4956269;28;20472;-68
2022/07/07 12:17:55;;;;;;;1.40;1.40;;;21.40;99.90;;;;;;4951665;29;20516;-67
2022/07/07 12:20:22;;;;;;;3.27;1.43;;;21.30;99.90;;;;;;4953679;28;20457;-68
2022/07/07 12:22:53;;;;;;;1.50;1.40;;;21.30;99.90;;;;;;4933665;29;20938;-68
2022/07/07 12:25:23;;;;;;;1.83;1.73;;;21.10;99.90;;;;;;4955401;28;20487;-68
2022/07/07 12:27:57;;;;;;;2.27;2.27;;;21.10;99.90;;;;;;4952513;29;20469;-68
2022/07/07 12:30:25;;;;;;;1.77;1.67;;;21.10;99.90;;;;;;4954779;28;20488;-67
2022/07/07 12:32:52;;;;;;;2.03;1.67;;;20.90;99.90;;;;;;4949783;29;20457;-66
2022/07/07 12:35:30;;;;;;;1.50;1.50;;;20.70;99.90;;;;;;4952994;29;20465;-67
2022/07/07 12:37:58;;;;;;;1.20;1.20;;;20.40;99.90;;;;;;4952763;29;20563;-67
2022/07/07 12:40:26;;;;;;;1.43;1.30;;;20.10;99.90;;;;;;4945120;28;20469;-67
2022/07/07 12:42:53;;;;;;;1.73;1.63;;;20.00;99.90;;;;;;4947667;29;20480;-67
2022/07/07 12:45:21;;;;;;;1.80;1.70;;;20.10;99.90;;;;;;4956781;28;20465;-67
2022/07/07 12:47:49;;;;;;;1.40;1.30;;;20.30;99.90;;;;;;4952552;29;20469;-67
2022/07/07 12:50:17;;;;;;;4.00;2.33;;;20.40;99.90;;;;;;4952601;28;20484;-67
2022/07/07 12:52:56;;;;;;;1.20;1.20;;;20.60;99.90;;;;;;4952741;29;20827;-67
2022/07/07 12:55:23;;;;;;;3.03;1.33;;;20.60;99.90;;;;;;4945574;28;20449;-67
2022/07/07 12:57:51;;;;;;;1.27;0.83;;;20.50;99.90;;;;;;4956259;28;20460;-67
2022/07/07 13:00:25;;;;;;;5.63;1.53;;;20.20;99.90;;;;;;4952887;28;20465;-67
2022/07/07 13:02:52;;;;;;;2.93;1.30;;;19.90;99.90;;;;;;4957331;28;20502;-67
2022/07/07 13:05:19;;;;;;;1.53;1.43;;;19.70;99.90;;;;;;4959681;28;20471;-67
2022/07/07 13:07:46;;;;;;;1.20;1.20;;;19.60;99.90;;;;;;4956180;28;20460;-67
2022/07/07 13:10:12;;;;;;;1.37;1.37;;;19.60;99.90;;;;;;4960540;28;20852;-67
2022/07/07 13:12:39;;;;;;;2.03;1.90;;;19.50;99.90;;;;;;4954369;28;20483;-67
2022/07/07 13:15:08;;;;;;;2.53;2.33;;;19.30;99.90;;;;;;4961349;28;20518;-67
2022/07/07 13:17:35;;;;;;;1.80;1.80;;;19.20;99.90;;;;;;4952724;28;20842;-67
2022/07/07 13:20:01;;;;;;;3.23;2.93;;;19.20;99.90;;;;;;4951447;29;20460;-67
2022/07/07 13:22:28;;;;;;;4.60;2.90;;;19.20;99.90;;;;;;4952055;28;20485;-68
2022/07/07 13:24:55;;;;;;;2.50;2.30;;;19.40;99.90;;;;;;4966365;28;20472;-68
2022/07/07 13:27:21;;;;;;;2.57;2.43;;;19.50;99.90;;;;;;4957382;28;21079;-68
2022/07/07 13:29:48;;;;;;;2.80;2.60;;;19.50;99.90;;;;;;4951422;29;20492;-67
2022/07/07 13:32:16;;;;;;;3.40;2.60;;;19.60;99.90;;;;;;4956786;28;20480;-68
2022/07/07 13:34:43;;;;;;;2.67;2.50;;;19.70;99.90;;;;;;4955916;29;20468;-68
2022/07/07 13:37:09;;;;;;;4.57;2.53;;;19.80;99.90;;;;;;4961585;28;20473;-68
2022/07/07 13:39:36;;;;;;;4.93;2.33;;;19.90;99.90;;;;;;4955721;29;20472;-68
2022/07/07 13:42:03;;;;;;;4.03;2.70;;;20.00;99.90;;;;;;4956411;28;20822;-68
2022/07/07 13:44:30;;;;;;;3.50;2.60;;;19.90;99.90;;;;;;4955670;29;20480;-68
2022/07/07 13:46:57;;;;;;;4.17;2.60;;;19.70;99.90;;;;;;4954716;28;20970;-68
2022/07/07 13:49:25;;;;;;;5.13;2.60;;;19.60;99.90;;;;;;4955350;29;20487;-68
2022/07/07 13:51:51;;;;;;;3.23;2.57;;;19.40;99.90;;;;;;4955861;28;20931;-68
2022/07/07 13:54:18;;;;;;;3.10;2.50;;;19.30;99.90;;;;;;4956085;29;20910;-68
2022/07/07 13:56:45;;;;;;;4.77;2.10;;;19.20;99.90;;;;;;4955772;28;20476;-68
2022/07/07 13:59:12;;;;;;;9.73;2.73;;;19.10;99.90;;;;;;4955602;29;20464;-68
2022/07/07 14:01:39;;;;;;;4.73;2.47;;;19.10;99.90;;;;;;4955392;28;20488;-68
2022/07/07 14:04:06;;;;;;;5.80;2.27;;;19.20;99.90;;;;;;4955159;28;20570;-67
2022/07/07 14:06:34;;;;;;;6.67;2.73;;;19.20;99.90;;;;;;4961194;28;20547;-67
2022/07/07 14:09:01;;;;;;;5.70;2.17;;;19.10;99.90;;;;;;4960513;28;20518;-67
2022/07/07 14:11:28;;;;;;;3.20;2.13;;;19.10;99.90;;;;;;4955090;28;20488;-67
2022/07/07 14:13:54;;;;;;;5.23;2.50;;;19.10;99.90;;;;;;4954786;29;20465;-67
2022/07/07 14:16:21;;;;;;;5.80;2.23;;;19.20;99.90;;;;;;4955653;28;20849;-67
2022/07/07 14:18:48;;;;;;;10.57;2.40;;;19.30;99.90;;;;;;4955850;28;20473;-67
2022/07/07 14:21:14;;;;;;;8.87;2.57;;;19.30;99.90;;;;;;4965229;28;20595;-66
2022/07/07 14:23:43;;;;;;;7.40;3.23;;;19.10;99.90;;;;;;4955079;28;20468;-67
2022/07/07 14:26:10;;;;;;;6.30;2.50;;;19.00;99.90;;;;;;4966585;28;20491;-67
2022/07/07 14:28:37;;;;;;;9.50;2.87;;;18.90;99.90;;;;;;4955036;29;20464;-67
2022/07/07 14:31:04;;;;;;;5.30;1.90;;;18.70;99.90;;;;;;4966117;28;20543;-68
2022/07/07 14:33:31;;;;;;;3.93;2.37;;;18.80;99.90;;;;;;4955206;29;21096;-68
2022/07/07 14:35:58;;;;;;;4.80;2.70;;;19.00;99.90;;;;;;4965453;28;20469;-67
2022/07/07 14:38:24;;;;;;;5.50;2.50;;;19.20;99.90;;;;;;4955225;29;20855;-67
2022/07/07 14:40:53;;;;;;;6.10;2.30;;;19.20;99.90;;;;;;4966339;28;20523;-67
2022/07/07 14:43:20;;;;;;;3.63;2.17;;;19.20;99.90;;;;;;4954574;29;20946;-67
2022/07/07 14:45:47;;;;;;;6.33;2.23;;;19.30;99.90;;;;;;4962330;28;20469;-68
2022/07/07 14:48:13;;;;;;;7.63;2.40;;;19.50;99.90;;;;;;4966484;28;20492;-68
2022/07/07 14:50:40;;;;;;;3.87;2.00;;;19.70;99.90;;;;;;4962381;28;20493;-68
2022/07/07 14:53:07;;;;;;;6.33;2.17;;;19.90;99.90;;;;;;4954875;28;20465;-67
2022/07/07 14:55:34;;;;;;;5.53;3.03;;;20.00;99.90;;;;;;4955056;29;20836;-68
2022/07/07 14:58:02;;;;;;;5.47;2.20;;;20.00;99.90;;;;;;4953598;28;20468;-68
2022/07/07 15:00:31;;;;;;;7.33;2.17;;;20.10;99.90;;;;;;4953944;29;20457;-67
2022/07/07 15:02:58;;;;;;;8.20;2.53;;;20.20;99.90;;;;;;4954454;28;20536;-68
2022/07/07 15:05:25;;;;;;;5.70;2.63;;;20.40;99.90;;;;;;4954261;29;20472;-67
2022/07/07 15:07:51;;;;;;;2.47;1.93;;;20.60;99.90;;;;;;4954852;28;20490;-67
2022/07/07 15:10:18;;;;;;;6.07;2.20;;;20.80;99.90;;;;;;4954064;29;20495;-68
2022/07/07 15:12:45;;;;;;;2.57;1.50;;;20.60;99.90;;;;;;4954955;28;20461;-67
2022/07/07 15:15:13;;;;;;;3.90;2.40;;;20.20;99.90;;;;;;4957478;28;20464;-67
2022/07/07 15:17:40;;;;;;;3.90;1.80;;;19.90;99.90;;;;;;4954853;28;20479;-67
2022/07/07 15:20:08;;;;;;;10.60;2.57;;;19.80;99.90;;;;;;4952053;28;20465;-68
2022/07/07 15:22:34;;;;;;;5.70;1.97;;;19.60;99.90;;;;;;4952392;28;21026;-67
2022/07/07 15:25:01;;;;;;;4.83;2.37;;;19.60;99.90;;;;;;4954089;29;20467;-67
2022/07/07 15:27:28;;;;;;;5.63;1.67;;;19.70;99.90;;;;;;4954018;29;20457;-67
2022/07/07 15:29:57;;;;;;;7.70;2.20;;;19.80;99.90;;;;;;4958820;28;21015;-68
2022/07/07 15:32:25;;;;;;;6.67;2.40;;;19.70;99.90;;;;;;4954798;28;20819;-67
2022/07/07 15:34:52;;;;;;;7.77;1.97;;;19.60;99.90;;;;;;4954520;28;20474;-67
2022/07/07 15:37:19;;;;;;;5.77;1.93;;;19.60;99.90;;;;;;4954291;29;20886;-67
2022/07/07 15:39:45;;;;;;;10.53;2.80;;;19.50;99.90;;;;;;4963363;28;20462;-67
2022/07/07 15:42:12;;;;;;;2.27;1.80;;;19.50;99.90;;;;;;4954998;28;20480;-67
2022/07/07 15:44:39;;;;;;;5.10;1.83;;;19.50;99.90;;;;;;4953632;28;20460;-67
2022/07/07 15:47:06;;;;;;;4.53;1.53;;;19.50;99.90;;;;;;4953676;28;20468;-68
2022/07/07 15:49:34;;;;;;;1.87;1.43;;;19.40;99.90;;;;;;4953182;28;20487;-68
2022/07/07 15:52:01;;;;;;;8.37;1.40;;;19.10;99.90;;;;;;4953800;29;20511;-67
2022/07/07 15:54:27;;;;;;;6.47;2.50;;;18.90;99.90;;;;;;4958825;28;20460;-67
2022/07/07 15:56:54;;;;;;;5.40;3.70;;;18.90;99.90;;;;;;4969081;28;20460;-68
2022/07/07 15:59:21;;;;;;;9.77;2.47;;;18.80;99.90;;;;;;4956676;28;20464;-68
2022/07/07 16:01:48;;;;;;;5.03;1.80;;;18.70;99.90;;;;;;4963977;28;20657;-67
2022/07/07 16:07:00;;;;;;;7.07;3.03;;;18.80;99.90;;;;;;4952464;28;20443;-68
2022/07/07 16:09:28;;;;;;;7.17;2.07;;;18.70;99.90;;;;;;4946975;29;20981;-67
2022/07/07 16:11:54;;;;;;;8.00;2.30;;;18.70;99.90;;;;;;4953014;29;20521;-68
2022/07/07 16:14:21;;;;;;;2.33;1.83;;;18.70;99.90;;;;;;4953924;28;20464;-68
2022/07/07 16:16:48;;;;;;;4.53;2.27;;;18.50;99.90;;;;;;4953801;28;20465;-67
2022/07/07 16:19:15;;;;;;;4.73;1.63;;;18.60;99.90;;;;;;4952544;29;20471;-67
2022/07/07 16:21:43;;;;;;;11.67;2.73;;;18.50;99.90;;;;;;4954345;28;20582;-68
2022/07/07 16:24:12;;;;;;;3.03;1.80;;;18.50;99.90;;;;;;4952611;29;20461;-67
2022/07/07 16:26:39;;;;;;;4.63;1.90;;;18.40;99.90;;;;;;4956442;28;20472;-67
2022/07/07 16:29:07;;;;;;;3.97;2.30;;;18.50;99.90;;;;;;4952650;29;20449;-67
2022/07/07 16:31:35;;;;;;;5.07;2.40;;;18.60;99.90;;;;;;4952780;29;20619;-68
2022/07/07 16:34:03;;;;;;;7.87;2.20;;;18.60;99.90;;;;;;4944734;29;20477;-68
2022/07/07 16:36:30;;;;;;;12.03;2.53;;;18.50;99.90;;;;;;4952811;29;20545;-67
2022/07/07 16:38:57;;;;;;;12.37;2.07;;;18.60;99.90;;;;;;4952387;29;20487;-67
2022/07/07 16:41:26;;;;;;;8.13;2.70;;;18.60;99.90;;;;;;4952203;29;20477;-67
2022/07/07 16:43:52;;;;;;;7.70;2.47;;;18.70;99.90;;;;;;4952336;29;20464;-67
2022/07/07 16:46:20;;;;;;;4.77;1.90;;;18.80;99.90;;;;;;4952978;29;20468;-67
2022/07/07 16:48:47;;;;;;;10.60;3.00;;;18.90;99.90;;;;;;4952211;29;20469;-68
2022/07/07 16:51:14;;;;;;;7.57;2.20;;;19.00;99.90;;;;;;4953207;29;20493;-68
2022/07/07 16:53:41;;;;;;;7.60;2.13;;;19.00;99.90;;;;;;4952526;29;20834;-68